Time;durP1;ratioP1;P1;durP2;ratioP2;P2;SDS_P1;SDS_P2;PMS_P1;PMS_P2;Temp;Humidity;BMP_temperature;BMP_pressure;BME280_temperature;BME280_humidity;BME280_pressure;Samples;Min_cycle;Max_cycle;Signal;HPM_P1;HPM_P2
2021/06/14 00:00:28;;;;;;;4.20;3.80;;;22.10;50.30;;;;;;4973394;28;20741;-64
2021/06/14 00:02:54;;;;;;;4.23;3.83;;;22.10;50.50;;;;;;4979033;28;20523;-65
2021/06/14 00:05:28;;;;;;;4.97;4.10;;;22.00;50.50;;;;;;4974643;28;20827;-64
2021/06/14 00:07:54;;;;;;;3.80;3.50;;;21.80;51.40;;;;;;4975440;28;20678;-62
2021/06/14 00:10:22;;;;;;;3.83;3.53;;;21.80;51.20;;;;;;4975403;28;20473;-65
2021/06/14 00:12:48;;;;;;;5.10;3.90;;;21.70;51.30;;;;;;4975635;28;20456;-65
2021/06/14 00:15:14;;;;;;;3.97;3.50;;;21.70;51.50;;;;;;4976160;28;20606;-64
2021/06/14 00:17:39;;;;;;;4.83;4.30;;;21.60;52.40;;;;;;4972718;28;20256;-62
2021/06/14 00:20:09;;;;;;;4.53;4.13;;;21.60;51.50;;;;;;4972419;28;20182;-62
2021/06/14 00:22:34;;;;;;;4.03;3.63;;;21.40;52.10;;;;;;4974394;28;20744;-62
2021/06/14 00:25:00;;;;;;;5.37;4.10;;;21.30;52.20;;;;;;4972560;28;20468;-63
2021/06/14 00:27:26;;;;;;;6.10;3.57;;;21.30;52.50;;;;;;4973817;28;20586;-61
2021/06/14 00:29:51;;;;;;;5.20;3.63;;;21.40;52.30;;;;;;4977079;28;20233;-63
2021/06/14 00:32:17;;;;;;;5.20;3.60;;;21.50;52.30;;;;;;4975257;28;20210;-62
2021/06/14 00:34:42;;;;;;;5.67;3.70;;;21.40;52.30;;;;;;4977428;28;20728;-62
2021/06/14 00:37:08;;;;;;;4.50;4.10;;;21.40;52.20;;;;;;4972729;28;20201;-64
2021/06/14 00:39:34;;;;;;;4.30;4.00;;;21.30;52.50;;;;;;4977670;28;20248;-63
2021/06/14 00:41:59;;;;;;;5.00;4.43;;;21.30;52.70;;;;;;4975286;28;20558;-63
2021/06/14 00:44:25;;;;;;;4.70;4.10;;;21.40;52.60;;;;;;4974836;28;20288;-63
2021/06/14 00:46:51;;;;;;;4.37;3.97;;;21.50;52.60;;;;;;4975273;28;20296;-63
2021/06/14 00:49:16;;;;;;;6.23;3.90;;;21.40;52.70;;;;;;4979340;28;20527;-62
2021/06/14 00:51:42;;;;;;;4.57;3.60;;;21.30;53.10;;;;;;4978217;28;22108;-63
2021/06/14 00:54:08;;;;;;;4.00;3.70;;;21.30;52.90;;;;;;4980326;28;20186;-63
2021/06/14 00:56:34;;;;;;;4.17;3.77;;;21.40;53.00;;;;;;4978682;28;20994;-64
2021/06/14 00:58:59;;;;;;;6.23;3.80;;;21.30;53.30;;;;;;4979304;28;20229;-64
2021/06/14 01:01:25;;;;;;;6.83;4.00;;;21.30;53.00;;;;;;4974676;28;20182;-64
2021/06/14 01:03:51;;;;;;;5.00;4.30;;;21.30;53.70;;;;;;4979365;28;20295;-64
2021/06/14 01:06:17;;;;;;;6.47;4.23;;;21.30;53.30;;;;;;4977915;28;20194;-63
2021/06/14 01:08:46;;;;;;;5.97;3.77;;;21.40;53.30;;;;;;4979804;28;20198;-62
2021/06/14 01:11:34;;;;;;;4.30;3.80;;;21.30;52.90;;;;;;4981319;28;20191;-62
2021/06/14 01:14:31;;;;;;;6.00;3.50;;;21.30;53.40;;;;;;4978235;28;20515;-63
2021/06/14 01:17:19;;;;;;;6.33;4.73;;;21.30;53.30;;;;;;4976843;28;20466;-65
2021/06/14 01:20:09;;;;;;;4.57;4.17;;;21.20;54.10;;;;;;4942911;28;21000;-62
2021/06/14 01:22:53;;;;;;;5.20;4.70;;;21.20;54.10;;;;;;4974709;28;21126;-64
2021/06/14 01:25:21;;;;;;;5.07;3.70;;;21.20;54.40;;;;;;4971683;28;20752;-60
2021/06/14 01:27:50;;;;;;;4.13;3.73;;;21.20;54.50;;;;;;4978550;28;20430;-64
2021/06/14 01:30:22;;;;;;;4.90;4.50;;;21.20;54.50;;;;;;4978525;28;20817;-64
2021/06/14 01:32:49;;;;;;;5.53;4.00;;;21.10;54.40;;;;;;4980910;28;20976;-61
2021/06/14 01:35:20;;;;;;;7.67;4.00;;;21.00;54.60;;;;;;4975489;28;20437;-62
2021/06/14 01:37:48;;;;;;;4.97;4.40;;;20.90;55.10;;;;;;4977496;28;20496;-61
2021/06/14 01:40:17;;;;;;;5.43;4.00;;;20.80;55.00;;;;;;4978034;28;20459;-63
2021/06/14 01:42:46;;;;;;;4.40;4.00;;;20.80;55.50;;;;;;4975629;28;20466;-61
2021/06/14 01:45:13;;;;;;;5.20;4.70;;;20.70;55.20;;;;;;4977634;28;20469;-60
2021/06/14 01:47:40;;;;;;;5.50;5.07;;;20.70;55.70;;;;;;4978858;28;20532;-61
2021/06/14 01:50:06;;;;;;;4.00;3.53;;;20.60;55.40;;;;;;4975967;28;20436;-61
2021/06/14 01:52:32;;;;;;;5.57;4.23;;;20.70;55.70;;;;;;4962491;28;20468;-61
2021/06/14 01:54:58;;;;;;;5.80;4.00;;;20.70;55.60;;;;;;4976012;28;20443;-63
2021/06/14 01:57:26;;;;;;;6.70;3.90;;;20.60;55.80;;;;;;4976519;28;20441;-65
2021/06/14 01:59:52;;;;;;;12.20;4.30;;;20.70;55.90;;;;;;4972564;28;21120;-62
2021/06/14 02:02:19;;;;;;;5.07;3.90;;;20.70;56.00;;;;;;4979069;28;21053;-63
2021/06/14 02:04:47;;;;;;;6.10;3.90;;;20.60;56.20;;;;;;4974755;28;20486;-64
2021/06/14 02:07:14;;;;;;;5.07;3.73;;;20.60;56.20;;;;;;4977179;28;20442;-64
2021/06/14 02:09:41;;;;;;;5.43;3.40;;;20.50;56.10;;;;;;4980303;28;20544;-64
2021/06/14 02:12:10;;;;;;;4.70;3.60;;;20.50;56.60;;;;;;4976663;28;20465;-63
2021/06/14 02:14:39;;;;;;;4.17;3.77;;;20.50;56.80;;;;;;4979743;28;20444;-64
2021/06/14 02:17:08;;;;;;;5.00;4.50;;;20.10;57.00;;;;;;4978144;28;20436;-62
2021/06/14 02:19:37;;;;;;;4.17;3.80;;;20.10;56.90;;;;;;4977360;28;20437;-64
2021/06/14 02:22:04;;;;;;;6.47;3.90;;;20.10;57.20;;;;;;4981935;28;20461;-63
2021/06/14 02:24:29;;;;;;;6.07;4.37;;;20.10;57.40;;;;;;4976462;28;20947;-64
2021/06/14 02:26:55;;;;;;;5.83;4.17;;;20.00;57.60;;;;;;4979552;28;20532;-61
2021/06/14 02:29:23;;;;;;;4.10;3.70;;;20.00;57.40;;;;;;4973609;28;20196;-63
2021/06/14 02:31:49;;;;;;;6.20;4.30;;;19.90;57.50;;;;;;4977102;28;20186;-64
2021/06/14 02:34:15;;;;;;;4.43;4.03;;;19.90;57.80;;;;;;4978033;28;21455;-64
2021/06/14 02:36:46;;;;;;;4.20;3.80;;;19.80;58.20;;;;;;4980238;28;20199;-64
2021/06/14 02:39:17;;;;;;;7.03;4.23;;;19.70;58.40;;;;;;4974925;28;20186;-65
2021/06/14 02:41:45;;;;;;;5.13;4.50;;;19.70;58.40;;;;;;4977990;28;20441;-64
2021/06/14 02:44:11;;;;;;;4.30;4.00;;;19.60;58.90;;;;;;4977539;28;20445;-63
2021/06/14 02:46:40;;;;;;;5.60;4.80;;;19.60;59.00;;;;;;4979834;28;20725;-62
2021/06/14 02:49:08;;;;;;;4.83;4.00;;;19.60;59.20;;;;;;4978166;28;20441;-63
2021/06/14 02:51:35;;;;;;;4.90;3.80;;;19.60;58.90;;;;;;4974557;28;20452;-64
2021/06/14 02:54:04;;;;;;;4.80;4.30;;;19.60;59.30;;;;;;4973166;28;20546;-61
2021/06/14 02:56:35;;;;;;;7.77;4.40;;;19.50;59.30;;;;;;4976959;28;20918;-61
2021/06/14 02:59:03;;;;;;;9.10;4.40;;;19.50;59.40;;;;;;4975482;28;20445;-63
2021/06/14 03:01:31;;;;;;;4.93;4.47;;;19.40;59.80;;;;;;4973768;28;20456;-64
2021/06/14 03:03:58;;;;;;;7.13;4.10;;;19.40;59.60;;;;;;4977184;28;20453;-64
2021/06/14 03:06:24;;;;;;;8.93;5.53;;;19.50;59.90;;;;;;4975443;28;20468;-63
2021/06/14 03:08:51;;;;;;;4.30;3.90;;;19.50;59.80;;;;;;4973729;28;21184;-65
2021/06/14 03:11:18;;;;;;;5.87;4.20;;;19.50;60.10;;;;;;4973945;28;20939;-64
2021/06/14 03:13:45;;;;;;;8.13;4.87;;;19.50;60.00;;;;;;4971821;28;20481;-62
2021/06/14 03:16:16;;;;;;;6.33;4.40;;;19.40;59.90;;;;;;4972740;28;20496;-63
2021/06/14 03:18:44;;;;;;;4.90;4.00;;;19.50;61.20;;;;;;4971462;28;20795;-63
2021/06/14 03:21:10;;;;;;;4.13;3.73;;;19.50;60.50;;;;;;4972050;28;20979;-65
2021/06/14 03:23:39;;;;;;;5.20;4.03;;;19.50;60.20;;;;;;4973590;28;20828;-62
2021/06/14 03:26:11;;;;;;;5.40;4.03;;;19.30;60.90;;;;;;4973139;28;20441;-63
2021/06/14 03:28:40;;;;;;;5.70;4.27;;;19.00;61.50;;;;;;4972436;28;20683;-63
2021/06/14 03:31:12;;;;;;;5.40;3.87;;;19.10;61.50;;;;;;4973749;28;20480;-63
2021/06/14 03:33:39;;;;;;;7.33;4.50;;;19.20;61.60;;;;;;4970582;28;20487;-63
2021/06/14 03:36:06;;;;;;;6.47;4.80;;;19.10;61.80;;;;;;4971754;28;20448;-64
2021/06/14 03:38:32;;;;;;;5.40;4.23;;;19.20;61.80;;;;;;4974024;28;20437;-65
2021/06/14 03:40:58;;;;;;;9.00;4.40;;;19.30;61.50;;;;;;4971497;28;20537;-65
2021/06/14 03:43:24;;;;;;;7.80;4.73;;;19.20;61.60;;;;;;4975754;28;20556;-65
2021/06/14 03:45:51;;;;;;;4.50;4.10;;;19.10;62.30;;;;;;4973235;28;20467;-64
2021/06/14 03:48:19;;;;;;;4.23;3.77;;;19.00;62.80;;;;;;4970022;28;20178;-64
2021/06/14 03:50:45;;;;;;;4.33;4.03;;;19.00;62.70;;;;;;4974194;28;20445;-65
2021/06/14 03:53:10;;;;;;;9.23;5.07;;;19.00;62.50;;;;;;4971084;28;20484;-65
2021/06/14 03:55:39;;;;;;;4.23;3.80;;;19.00;63.00;;;;;;4974256;28;20221;-64
2021/06/14 03:58:04;;;;;;;5.77;3.70;;;19.10;62.60;;;;;;4972799;28;20536;-63
2021/06/14 04:00:30;;;;;;;4.40;4.00;;;19.10;62.50;;;;;;4972382;28;20445;-63
2021/06/14 04:02:55;;;;;;;4.50;3.73;;;19.10;62.30;;;;;;4973387;28;20210;-62
2021/06/14 04:05:21;;;;;;;4.20;3.80;;;19.10;62.30;;;;;;4971085;28;20509;-62
2021/06/14 04:07:47;;;;;;;4.40;4.00;;;19.00;61.90;;;;;;4973864;28;20478;-64
2021/06/14 04:10:13;;;;;;;4.60;3.80;;;19.00;62.30;;;;;;4974315;28;20182;-62
2021/06/14 04:12:39;;;;;;;4.63;3.90;;;19.00;62.20;;;;;;4974721;28;20237;-66
2021/06/14 04:15:09;;;;;;;8.40;4.73;;;19.10;62.40;;;;;;4977032;28;20943;-65
2021/06/14 04:17:34;;;;;;;4.40;4.00;;;19.10;62.00;;;;;;4975534;28;20362;-63
2021/06/14 04:20:00;;;;;;;6.60;5.50;;;19.00;63.40;;;;;;4977254;28;20453;-63
2021/06/14 04:22:26;;;;;;;4.70;4.30;;;19.00;62.70;;;;;;4980993;28;20566;-63
2021/06/14 04:24:52;;;;;;;7.83;4.90;;;18.90;63.30;;;;;;4982496;28;20980;-63
2021/06/14 04:27:18;;;;;;;6.60;4.33;;;18.70;63.00;;;;;;4981888;28;20575;-63
2021/06/14 04:29:43;;;;;;;6.33;3.70;;;18.60;64.20;;;;;;4981810;28;20663;-64
2021/06/14 04:32:10;;;;;;;4.30;3.90;;;18.80;63.70;;;;;;4983050;28;20316;-62
2021/06/14 04:34:35;;;;;;;6.40;4.30;;;18.70;64.10;;;;;;4983081;28;20224;-64
2021/06/14 04:37:01;;;;;;;5.20;4.40;;;18.80;64.00;;;;;;4979464;28;20437;-63
2021/06/14 04:39:26;;;;;;;5.30;4.47;;;18.90;64.10;;;;;;4982041;28;20316;-64
2021/06/14 04:41:52;;;;;;;7.10;5.57;;;18.90;63.80;;;;;;4980557;28;20191;-63
2021/06/14 04:44:18;;;;;;;9.40;3.90;;;18.90;63.70;;;;;;4984032;28;20500;-63
2021/06/14 04:46:43;;;;;;;4.33;3.83;;;19.00;64.10;;;;;;4981197;28;20202;-64
2021/06/14 04:49:09;;;;;;;5.37;4.70;;;19.20;63.90;;;;;;4982404;28;20603;-65
2021/06/14 04:51:35;;;;;;;6.80;4.50;;;19.20;63.50;;;;;;4985482;28;20188;-63
2021/06/14 04:54:00;;;;;;;7.17;4.50;;;19.20;64.00;;;;;;4978827;28;20230;-62
2021/06/14 04:56:26;;;;;;;5.40;4.30;;;19.10;64.10;;;;;;4984046;28;20189;-65
2021/06/14 04:58:52;;;;;;;4.07;3.67;;;19.20;64.30;;;;;;4984966;28;20185;-63
2021/06/14 05:01:17;;;;;;;5.10;4.53;;;19.00;64.50;;;;;;4979856;28;20186;-63
2021/06/14 05:03:43;;;;;;;4.30;3.90;;;19.10;64.70;;;;;;4981737;28;20217;-64
2021/06/14 05:06:10;;;;;;;5.73;4.37;;;19.10;64.90;;;;;;4982637;28;20186;-63
2021/06/14 05:08:36;;;;;;;5.70;5.00;;;19.20;64.70;;;;;;4980839;28;20218;-63
2021/06/14 05:11:02;;;;;;;9.30;4.20;;;19.10;64.80;;;;;;4984911;28;20514;-63
2021/06/14 05:13:27;;;;;;;4.13;3.73;;;19.20;65.00;;;;;;4983602;28;20265;-64
2021/06/14 05:15:53;;;;;;;6.70;4.43;;;19.30;64.80;;;;;;4977351;28;20193;-64
2021/06/14 05:18:19;;;;;;;5.30;3.90;;;19.30;64.50;;;;;;4983421;28;20680;-64
2021/06/14 05:20:44;;;;;;;7.77;4.17;;;19.40;64.80;;;;;;4985102;28;20280;-62
2021/06/14 05:23:10;;;;;;;11.73;5.70;;;19.50;64.80;;;;;;4980915;28;20701;-63
2021/06/14 05:25:36;;;;;;;6.47;4.10;;;19.60;64.50;;;;;;4982951;28;20190;-64
2021/06/14 05:28:04;;;;;;;4.40;4.00;;;19.50;64.40;;;;;;4981064;28;20273;-63
2021/06/14 05:30:31;;;;;;;4.53;3.90;;;19.50;64.80;;;;;;4975852;28;20444;-63
2021/06/14 05:32:57;;;;;;;8.67;5.20;;;19.50;64.80;;;;;;4982524;28;21045;-65
2021/06/14 05:35:23;;;;;;;7.13;4.90;;;19.50;65.10;;;;;;4979191;28;20521;-64
2021/06/14 05:37:49;;;;;;;7.33;4.80;;;19.60;65.20;;;;;;4983798;28;20273;-65
2021/06/14 05:40:16;;;;;;;9.40;5.30;;;19.60;65.10;;;;;;4980859;28;20182;-65
2021/06/14 05:42:42;;;;;;;5.63;4.57;;;19.60;65.40;;;;;;4982033;28;20599;-66
2021/06/14 05:45:09;;;;;;;6.97;4.03;;;19.60;65.50;;;;;;4977782;28;21109;-65
2021/06/14 05:47:35;;;;;;;7.13;4.73;;;19.70;65.60;;;;;;4980652;28;20430;-65
2021/06/14 05:50:03;;;;;;;6.10;4.77;;;19.60;65.60;;;;;;4982305;28;20456;-65
2021/06/14 05:52:29;;;;;;;8.30;5.20;;;19.60;65.70;;;;;;4979069;28;20877;-65
2021/06/14 05:54:54;;;;;;;7.50;4.50;;;19.70;65.70;;;;;;4977904;28;20480;-65
2021/06/14 05:57:20;;;;;;;6.90;4.63;;;19.80;65.10;;;;;;4985105;28;20432;-65
2021/06/14 05:59:46;;;;;;;5.37;4.50;;;19.80;65.20;;;;;;4979012;28;20199;-64
2021/06/14 06:02:12;;;;;;;5.53;3.90;;;19.80;65.10;;;;;;4977794;28;20621;-66
2021/06/14 06:04:40;;;;;;;4.70;4.10;;;19.70;65.40;;;;;;4982112;28;20574;-66
2021/06/14 06:07:06;;;;;;;5.00;4.37;;;19.80;65.80;;;;;;4982566;28;20202;-64
2021/06/14 06:09:31;;;;;;;7.90;5.00;;;19.70;65.80;;;;;;4982419;28;20449;-64
2021/06/14 06:11:58;;;;;;;4.43;3.97;;;19.70;66.10;;;;;;4981720;28;20201;-66
2021/06/14 06:14:23;;;;;;;8.17;3.77;;;19.70;66.00;;;;;;4980372;28;20205;-64
2021/06/14 06:16:50;;;;;;;5.80;4.17;;;19.80;66.00;;;;;;4978609;28;20801;-65
2021/06/14 06:19:19;;;;;;;7.50;5.00;;;19.70;66.50;;;;;;4978281;28;20321;-66
2021/06/14 06:21:46;;;;;;;9.77;5.20;;;19.90;66.70;;;;;;4980453;28;20539;-66
2021/06/14 06:24:12;;;;;;;10.93;7.73;;;20.00;65.80;;;;;;4977212;28;20455;-67
2021/06/14 06:26:39;;;;;;;5.77;4.70;;;20.20;65.80;;;;;;4980199;28;20437;-67
2021/06/14 06:29:05;;;;;;;4.43;4.03;;;20.20;65.90;;;;;;4976039;28;20878;-67
2021/06/14 06:31:31;;;;;;;7.23;4.57;;;20.30;66.40;;;;;;4978212;28;20471;-66
2021/06/14 06:33:57;;;;;;;4.17;3.30;;;20.30;66.10;;;;;;4977799;28;20465;-67
2021/06/14 06:36:24;;;;;;;4.37;3.73;;;20.30;65.90;;;;;;4976238;28;21023;-66
2021/06/14 06:38:50;;;;;;;4.83;4.23;;;20.30;66.10;;;;;;4979162;28;20430;-69
2021/06/14 06:41:16;;;;;;;5.30;4.10;;;20.40;65.70;;;;;;4977862;28;20426;-65
2021/06/14 06:43:42;;;;;;;5.00;3.77;;;20.50;65.40;;;;;;4985028;28;21094;-66
2021/06/14 06:46:11;;;;;;;5.63;4.20;;;20.50;65.20;;;;;;4984454;28;20550;-66
2021/06/14 06:48:36;;;;;;;4.70;4.10;;;20.60;65.30;;;;;;4964476;28;20449;-66
2021/06/14 06:51:03;;;;;;;4.57;4.17;;;20.60;65.20;;;;;;4977855;28;20488;-66
2021/06/14 06:53:29;;;;;;;8.63;4.27;;;20.70;65.00;;;;;;4990338;23;20505;-66
2021/06/14 06:56:02;;;;;;;4.07;3.67;;;20.80;64.70;;;;;;4982748;28;20437;-67
2021/06/14 06:58:29;;;;;;;4.40;4.00;;;20.80;64.70;;;;;;4964172;28;20871;-66
2021/06/14 07:01:05;;;;;;;4.97;3.60;;;21.00;64.80;;;;;;4981509;28;20511;-66
2021/06/14 07:03:32;;;;;;;8.30;5.00;;;21.00;64.30;;;;;;4987251;28;20459;-65
2021/06/14 07:06:06;;;;;;;5.73;4.20;;;21.10;64.30;;;;;;4981229;28;20445;-65
2021/06/14 07:08:33;;;;;;;4.60;4.00;;;21.10;63.80;;;;;;4976131;28;20456;-66
2021/06/14 07:11:01;;;;;;;4.67;4.13;;;21.10;63.90;;;;;;4982929;28;21042;-66
2021/06/14 07:13:37;;;;;;;4.40;3.60;;;21.20;63.80;;;;;;4975772;28;20758;-65
2021/06/14 07:16:11;;;;;;;6.10;4.90;;;21.20;63.60;;;;;;4979393;28;20453;-66
2021/06/14 07:18:37;;;;;;;4.60;4.10;;;21.20;64.00;;;;;;4975423;28;20414;-66
2021/06/14 07:21:04;;;;;;;5.73;4.73;;;21.30;63.70;;;;;;4974960;28;20550;-67
2021/06/14 07:23:40;;;;;;;4.40;3.90;;;21.20;64.50;;;;;;4977488;28;20452;-66
2021/06/14 07:26:35;;;;;;;7.73;4.70;;;21.20;63.80;;;;;;4963889;28;20520;-67
2021/06/14 07:29:02;;;;;;;5.53;4.40;;;21.30;64.70;;;;;;4979073;28;20519;-67
2021/06/14 07:31:32;;;;;;;8.90;4.57;;;21.40;63.50;;;;;;4980505;28;20437;-67
2021/06/14 07:34:09;;;;;;;5.67;4.10;;;21.50;63.20;;;;;;4963677;28;20558;-66
2021/06/14 07:36:41;;;;;;;3.90;3.60;;;21.60;62.90;;;;;;4960947;28;20476;-68
2021/06/14 07:39:41;;;;;;;12.20;9.40;;;21.70;63.00;;;;;;4981657;28;20653;-67
2021/06/14 07:42:16;;;;;;;8.80;6.70;;;21.80;62.90;;;;;;4965110;28;20450;-66
2021/06/14 07:44:44;;;;;;;6.40;4.70;;;21.90;63.30;;;;;;4977126;28;20430;-67
2021/06/14 07:47:21;;;;;;;17.13;9.60;;;21.80;64.30;;;;;;4974985;28;20456;-66
2021/06/14 07:50:07;;;;;;;8.60;5.20;;;21.80;64.00;;;;;;4978729;28;20558;-67
2021/06/14 07:52:36;;;;;;;6.43;5.00;;;22.00;63.10;;;;;;4950628;28;21039;-67
2021/06/14 07:58:49;;;;;;;6.93;4.93;;;22.00;63.30;;;;;;4981383;28;20425;-66
2021/06/14 08:01:53;;;;;;;4.53;4.13;;;22.10;63.50;;;;;;4994813;28;20598;-66
2021/06/14 08:05:16;;;;;;;6.37;3.90;;;22.10;63.40;;;;;;4905498;29;20428;-66
2021/06/14 08:14:35;;;;;;;8.07;4.77;;;22.30;63.10;;;;;;4870697;29;20521;-66
2021/06/14 08:17:03;;;;;;;6.43;5.03;;;22.30;63.20;;;;;;4873934;29;20437;-67
2021/06/14 08:19:50;;;;;;;4.60;4.20;;;22.30;63.10;;;;;;4890404;29;20535;-66
2021/06/14 08:25:57;;;;;;;5.40;3.60;;;22.40;63.50;;;;;;4918766;29;20439;-66
2021/06/14 08:28:29;;;;;;;7.00;4.93;;;22.50;63.70;;;;;;4855325;29;20450;-67
2021/06/14 08:30:55;;;;;;;8.23;5.93;;;22.50;63.10;;;;;;4906035;29;20463;-66
2021/06/14 08:33:21;;;;;;;6.03;5.00;;;22.60;63.70;;;;;;4888229;29;20580;-66
2021/06/14 08:35:50;;;;;;;4.80;4.03;;;22.70;63.30;;;;;;4967832;28;20256;-66
2021/06/14 08:38:16;;;;;;;7.47;5.87;;;22.70;62.80;;;;;;4978463;28;20785;-67
2021/06/14 08:40:43;;;;;;;5.50;4.40;;;22.80;63.70;;;;;;4973202;28;20210;-65
2021/06/14 08:43:12;;;;;;;5.23;4.73;;;22.90;62.80;;;;;;4977216;28;20829;-66
2021/06/14 08:45:41;;;;;;;6.83;4.17;;;22.90;63.00;;;;;;4977539;28;20421;-67
2021/06/14 08:48:09;;;;;;;5.50;4.20;;;23.10;62.30;;;;;;4979638;28;20463;-65
2021/06/14 08:50:36;;;;;;;6.50;4.37;;;23.10;62.10;;;;;;4975537;28;20439;-66
2021/06/14 08:53:03;;;;;;;5.10;3.97;;;23.10;62.10;;;;;;4978309;28;20575;-64
2021/06/14 08:55:30;;;;;;;4.40;4.00;;;23.20;63.30;;;;;;4973395;28;20472;-64
2021/06/14 08:58:02;;;;;;;6.83;4.40;;;23.20;62.20;;;;;;4973478;28;20464;-66
2021/06/14 09:00:29;;;;;;;8.00;4.00;;;23.30;63.00;;;;;;4973184;28;20454;-66
2021/06/14 09:02:59;;;;;;;4.33;3.60;;;23.50;61.80;;;;;;4978904;28;21046;-65
2021/06/14 09:05:25;;;;;;;8.50;3.90;;;23.50;60.70;;;;;;4977151;28;20456;-65
2021/06/14 09:07:53;;;;;;;7.33;4.30;;;23.50;60.20;;;;;;4975128;28;20859;-66
2021/06/14 09:10:30;;;;;;;4.40;4.00;;;23.60;61.10;;;;;;4970749;28;20460;-66
2021/06/14 09:13:13;;;;;;;6.80;4.30;;;23.60;60.90;;;;;;4973735;28;20445;-65
2021/06/14 09:15:41;;;;;;;6.37;4.00;;;23.60;60.50;;;;;;4973636;28;20472;-65
2021/06/14 09:18:27;;;;;;;12.63;4.07;;;23.70;61.20;;;;;;4976460;28;20639;-65
2021/06/14 09:20:55;;;;;;;12.67;4.03;;;23.80;61.50;;;;;;4977230;28;20464;-66
2021/06/14 09:23:22;;;;;;;4.53;4.13;;;23.80;61.30;;;;;;4980830;28;20437;-66
2021/06/14 09:25:52;;;;;;;10.03;4.47;;;23.90;61.50;;;;;;4981977;28;20802;-66
2021/06/14 09:28:18;;;;;;;6.03;3.60;;;23.90;60.20;;;;;;4979317;28;20591;-64
2021/06/14 09:30:45;;;;;;;6.37;4.10;;;24.00;59.80;;;;;;4984541;28;20421;-65
2021/06/14 09:33:22;;;;;;;5.87;3.80;;;24.00;59.40;;;;;;4977224;28;20752;-65
2021/06/14 09:35:50;;;;;;;4.23;3.87;;;24.00;59.00;;;;;;4978315;28;20469;-66
2021/06/14 09:38:20;;;;;;;4.87;4.13;;;24.10;58.80;;;;;;5018663;23;21955;-63
2021/06/14 09:41:00;;;;;;;4.30;3.80;;;24.20;59.00;;;;;;4995424;28;20921;-66
2021/06/14 09:43:37;;;;;;;5.10;3.87;;;24.30;59.20;;;;;;4997379;28;20849;-65
2021/06/14 09:46:22;;;;;;;5.30;4.40;;;24.30;58.80;;;;;;4998673;28;20473;-66
2021/06/14 09:48:50;;;;;;;6.53;3.70;;;24.30;58.30;;;;;;4991611;28;20424;-64
2021/06/14 09:51:17;;;;;;;6.43;5.80;;;24.40;58.40;;;;;;4999308;28;21108;-65
2021/06/14 09:53:47;;;;;;;8.30;4.57;;;24.50;59.00;;;;;;4997231;28;20472;-65
2021/06/14 09:56:37;;;;;;;5.40;4.17;;;24.50;58.30;;;;;;4991244;28;20490;-63
2021/06/14 09:59:04;;;;;;;8.53;3.77;;;24.60;57.60;;;;;;4993995;28;20440;-65
2021/06/14 10:01:33;;;;;;;7.90;4.90;;;24.50;57.40;;;;;;4989456;28;20435;-65
2021/06/14 10:04:11;;;;;;;5.40;3.80;;;24.60;58.90;;;;;;4995865;28;20816;-64
2021/06/14 10:06:42;;;;;;;6.00;3.83;;;24.70;59.30;;;;;;4991880;28;20440;-67
2021/06/14 10:09:18;;;;;;;4.60;4.10;;;24.80;57.90;;;;;;4997057;28;20925;-66
2021/06/14 10:11:45;;;;;;;7.63;4.07;;;24.90;57.60;;;;;;4995783;28;20449;-65
2021/06/14 10:14:22;;;;;;;4.93;4.20;;;24.90;58.10;;;;;;4992427;28;20988;-64
2021/06/14 10:16:54;;;;;;;7.03;3.60;;;25.00;57.10;;;;;;4999530;28;20444;-64
2021/06/14 10:19:27;;;;;;;6.90;5.60;;;25.00;57.00;;;;;;4992574;28;20441;-64
2021/06/14 10:24:23;;;;;;;3.83;3.43;;;25.20;57.10;;;;;;4975856;28;20485;-65
2021/06/14 10:26:53;;;;;;;5.37;3.60;;;25.30;56.50;;;;;;4979878;28;20425;-65
2021/06/14 10:29:20;;;;;;;3.80;3.40;;;25.30;55.00;;;;;;4971480;28;20182;-66
2021/06/14 10:31:51;;;;;;;6.43;3.90;;;25.30;55.10;;;;;;4975491;28;20515;-68
2021/06/14 10:34:49;;;;;;;3.90;3.50;;;25.40;55.70;;;;;;4980155;28;20492;-66
2021/06/14 10:37:19;;;;;;;4.00;3.70;;;25.50;55.10;;;;;;4983501;28;20439;-67
2021/06/14 10:39:52;;;;;;;6.60;4.60;;;25.50;54.90;;;;;;4977986;28;20971;-68
2021/06/14 10:42:48;;;;;;;4.70;3.80;;;25.60;54.70;;;;;;4983871;28;20803;-67
2021/06/14 10:45:19;;;;;;;13.30;4.00;;;25.70;54.40;;;;;;4986979;28;20754;-64
2021/06/14 10:47:49;;;;;;;7.30;3.77;;;25.70;55.10;;;;;;4979132;28;20449;-66
2021/06/14 10:50:24;;;;;;;5.97;3.87;;;25.70;54.60;;;;;;4974285;28;20461;-65
2021/06/14 10:52:54;;;;;;;7.03;4.00;;;25.70;54.30;;;;;;4979903;28;20933;-65
2021/06/14 10:55:26;;;;;;;7.30;3.93;;;25.80;53.50;;;;;;4975335;28;20476;-65
2021/06/14 10:58:27;;;;;;;5.07;4.47;;;25.90;54.00;;;;;;4981577;28;20449;-69
2021/06/14 11:01:20;;;;;;;4.93;4.17;;;26.00;54.00;;;;;;4959984;28;21110;-65
2021/06/14 11:03:49;;;;;;;6.57;5.97;;;26.10;52.90;;;;;;4984815;28;20941;-65
2021/06/14 11:06:20;;;;;;;4.30;3.53;;;26.20;52.10;;;;;;4977571;28;20449;-65
2021/06/14 11:09:13;;;;;;;6.30;3.90;;;26.30;52.20;;;;;;4974669;28;20528;-66
2021/06/14 11:11:55;;;;;;;4.17;3.77;;;26.40;52.40;;;;;;4975773;28;20553;-63
2021/06/14 11:14:38;;;;;;;6.97;3.80;;;26.60;51.50;;;;;;4973144;28;20564;-66
2021/06/14 11:17:36;;;;;;;4.20;3.80;;;26.70;50.70;;;;;;4977449;28;20440;-64
2021/06/14 11:20:02;;;;;;;7.17;4.13;;;26.70;50.50;;;;;;4977607;28;20515;-65
2021/06/14 11:22:44;;;;;;;3.53;3.13;;;26.70;49.90;;;;;;4980668;28;20445;-66
2021/06/14 11:25:45;;;;;;;4.53;3.67;;;26.90;50.50;;;;;;4976134;28;20519;-64
2021/06/14 11:28:27;;;;;;;5.27;3.30;;;27.10;51.10;;;;;;4958306;28;20441;-64
2021/06/14 11:30:53;;;;;;;4.93;3.90;;;27.30;49.80;;;;;;4975179;28;20417;-67
2021/06/14 11:33:30;;;;;;;3.33;3.00;;;27.40;50.00;;;;;;4976045;28;20445;-66
2021/06/14 11:35:57;;;;;;;4.90;3.97;;;27.60;49.20;;;;;;4979471;28;20256;-65
2021/06/14 11:38:27;;;;;;;4.67;4.27;;;27.80;48.50;;;;;;4971620;28;20438;-66
2021/06/14 11:40:57;;;;;;;15.90;4.80;;;27.80;48.30;;;;;;4976654;28;20568;-67
2021/06/14 11:43:23;;;;;;;5.77;5.17;;;28.00;47.80;;;;;;4973230;28;20470;-64
2021/06/14 11:45:57;;;;;;;8.70;5.53;;;28.10;47.90;;;;;;4978116;28;20456;-66
2021/06/14 11:48:32;;;;;;;5.20;4.37;;;28.30;49.20;;;;;;4974110;28;20901;-68
2021/06/14 11:51:10;;;;;;;4.23;3.83;;;28.60;48.10;;;;;;4975066;28;20436;-67
2021/06/14 11:53:45;;;;;;;4.03;3.47;;;28.80;47.20;;;;;;4973809;28;20951;-66
2021/06/14 11:56:13;;;;;;;5.30;3.50;;;29.40;47.30;;;;;;4977576;28;20496;-67
2021/06/14 11:58:42;;;;;;;4.00;3.70;;;29.80;46.50;;;;;;4975525;28;20444;-64
2021/06/14 12:01:08;;;;;;;3.93;3.63;;;30.40;46.10;;;;;;4956767;28;20854;-65
2021/06/14 12:03:34;;;;;;;3.60;3.30;;;31.30;44.80;;;;;;4978399;28;20472;-67
2021/06/14 12:06:02;;;;;;;3.47;3.17;;;32.90;42.80;;;;;;4977001;28;20186;-68
2021/06/14 12:08:28;;;;;;;4.80;3.10;;;35.10;40.90;;;;;;4979126;28;20271;-65
2021/06/14 12:11:06;;;;;;;4.90;3.23;;;36.90;38.40;;;;;;4987134;28;20421;-66
2021/06/14 12:13:31;;;;;;;4.97;4.57;;;38.50;36.40;;;;;;4977675;28;20228;-66
2021/06/14 12:15:58;;;;;;;7.83;6.40;;;39.50;34.80;;;;;;4982941;28;20825;-67
2021/06/14 12:18:28;;;;;;;3.73;3.40;;;40.60;33.50;;;;;;4973924;28;20197;-65
2021/06/14 12:21:06;;;;;;;4.33;4.00;;;41.80;32.00;;;;;;4977683;28;20422;-64
2021/06/14 12:23:37;;;;;;;6.50;4.67;;;42.10;30.80;;;;;;4973442;28;20464;-67
2021/06/14 12:26:09;;;;;;;3.23;3.03;;;42.60;30.20;;;;;;4971131;28;20470;-65
2021/06/14 12:28:35;;;;;;;4.80;4.40;;;43.20;29.40;;;;;;4978391;28;20499;-65
2021/06/14 12:31:05;;;;;;;4.30;3.90;;;43.70;28.90;;;;;;4976936;28;20426;-65
2021/06/14 12:33:34;;;;;;;4.13;3.70;;;44.20;28.10;;;;;;4977549;28;20467;-64
2021/06/14 12:36:05;;;;;;;3.80;2.80;;;44.30;28.10;;;;;;4977614;28;20460;-64
2021/06/14 12:38:33;;;;;;;4.90;4.27;;;43.60;27.50;;;;;;4973803;28;20440;-64
2021/06/14 12:41:03;;;;;;;3.13;2.93;;;43.80;27.90;;;;;;4976957;28;20437;-64
2021/06/14 12:43:36;;;;;;;3.50;3.30;;;44.00;28.00;;;;;;4977171;28;20453;-64
2021/06/14 12:46:02;;;;;;;4.90;3.83;;;44.00;27.40;;;;;;4977911;28;20437;-65
2021/06/14 12:48:28;;;;;;;4.43;3.93;;;44.30;27.70;;;;;;4981278;28;21149;-64
2021/06/14 12:50:55;;;;;;;3.87;3.50;;;44.50;26.90;;;;;;4980938;28;20440;-64
2021/06/14 12:53:24;;;;;;;3.90;3.03;;;45.20;26.90;;;;;;4978605;28;20501;-65
2021/06/14 12:55:52;;;;;;;2.90;2.70;;;45.10;27.20;;;;;;4986815;28;20472;-65
2021/06/14 12:58:24;;;;;;;3.57;3.27;;;45.30;26.70;;;;;;4980236;28;20425;-66
2021/06/14 13:01:01;;;;;;;3.40;3.10;;;45.40;26.10;;;;;;4979851;28;20836;-64
2021/06/14 13:03:34;;;;;;;5.47;3.13;;;45.70;25.80;;;;;;4976345;28;21023;-66
2021/06/14 13:06:01;;;;;;;3.27;2.80;;;46.40;26.00;;;;;;4978263;28;20444;-66
2021/06/14 13:08:34;;;;;;;3.20;3.00;;;46.90;25.70;;;;;;4978266;28;20450;-66
2021/06/14 13:11:01;;;;;;;3.53;3.10;;;46.50;25.90;;;;;;4977430;28;20599;-68
2021/06/14 13:13:42;;;;;;;3.37;3.17;;;46.80;25.80;;;;;;4984436;28;21199;-66
2021/06/14 13:16:09;;;;;;;2.90;2.70;;;47.20;25.40;;;;;;4978454;28;20451;-64